Time;durP1;ratioP1;P1;durP2;ratioP2;P2;SDS_P1;SDS_P2;PMS_P1;PMS_P2;Temp;Humidity;BMP_temperature;BMP_pressure;BME280_temperature;BME280_humidity;BME280_pressure;Samples;Min_cycle;Max_cycle;Signal;HPM_P1;HPM_P2
2023/10/19 00:00:48;;;;;;;20.90;17.48;;;12.10;99.90;;;;;;5051929;28;20500;-82
2023/10/19 00:03:14;;;;;;;24.55;18.83;;;12.10;99.90;;;;;;5052386;28;20021;-83
2023/10/19 00:05:41;;;;;;;20.23;18.08;;;12.10;99.90;;;;;;5051925;28;20098;-83
2023/10/19 00:10:40;;;;;;;24.05;19.30;;;12.10;99.90;;;;;;5051591;28;20033;-84
2023/10/19 00:13:08;;;;;;;19.67;17.60;;;12.10;99.90;;;;;;5050944;28;20108;-84
2023/10/19 00:15:37;;;;;;;22.88;18.15;;;12.10;99.90;;;;;;5052041;28;20524;-83
2023/10/19 00:18:20;;;;;;;24.30;18.90;;;12.10;99.90;;;;;;5052551;28;20039;-83
2023/10/19 00:20:52;;;;;;;19.27;17.25;;;12.10;99.90;;;;;;5051717;28;20039;-83
2023/10/19 00:23:28;;;;;;;20.15;17.95;;;12.20;99.90;;;;;;5052295;28;20410;-84
2023/10/19 00:26:13;;;;;;;21.27;18.25;;;12.20;99.90;;;;;;5052104;28;20029;-85
2023/10/19 00:28:39;;;;;;;21.30;18.58;;;12.20;99.90;;;;;;5051228;28;20108;-84
2023/10/19 00:31:08;;;;;;;21.92;19.58;;;12.20;99.90;;;;;;5051108;28;20174;-84
2023/10/19 00:33:40;;;;;;;24.83;19.85;;;12.20;99.90;;;;;;5051460;28;20032;-83
2023/10/19 00:36:07;;;;;;;21.90;19.60;;;12.30;99.90;;;;;;5052253;28;20366;-83
2023/10/19 00:39:00;;;;;;;29.85;20.00;;;12.30;99.90;;;;;;5051842;28;20397;-83
2023/10/19 00:41:32;;;;;;;27.95;20.20;;;12.30;99.90;;;;;;5050978;28;20037;-83
2023/10/19 00:44:10;;;;;;;21.52;19.30;;;12.90;99.90;;;;;;5052251;28;20108;-82
2023/10/19 00:46:43;;;;;;;20.70;18.58;;;12.40;99.90;;;;;;5052099;28;20041;-84
2023/10/19 00:49:12;;;;;;;23.52;18.80;;;12.40;99.90;;;;;;5051220;28;20496;-83
2023/10/19 00:54:33;;;;;;;25.15;19.40;;;12.70;99.90;;;;;;5051021;28;20090;-83
2023/10/19 00:57:04;;;;;;;28.15;19.92;;;12.50;99.90;;;;;;5032366;28;20117;-83
2023/10/19 00:59:30;;;;;;;24.95;20.50;;;12.40;99.90;;;;;;5031903;28;20605;-83
2023/10/19 01:04:42;;;;;;;20.60;17.85;;;12.50;99.90;;;;;;5031868;28;20060;-83
2023/10/19 01:07:21;;;;;;;25.55;19.65;;;12.50;99.90;;;;;;5032019;28;20029;-83
2023/10/19 01:09:47;;;;;;;25.35;20.35;;;12.50;99.90;;;;;;5030756;28;20044;-83
2023/10/19 01:15:13;;;;;;;22.83;19.40;;;12.60;99.90;;;;;;5047505;28;20393;-83
2023/10/19 01:17:41;;;;;;;21.65;18.38;;;12.60;99.90;;;;;;5050645;28;20485;-84
2023/10/19 01:22:53;;;;;;;21.90;18.40;;;12.70;99.90;;;;;;5050998;28;20039;-83
2023/10/19 01:25:34;;;;;;;23.35;18.48;;;12.70;99.90;;;;;;5055317;28;20029;-84
2023/10/19 01:28:07;;;;;;;21.80;19.20;;;12.70;99.90;;;;;;5055664;28;20033;-83
2023/10/19 01:30:33;;;;;;;20.52;17.90;;;12.80;99.90;;;;;;5054497;28;20413;-84
2023/10/19 01:32:59;;;;;;;20.52;17.13;;;12.80;99.90;;;;;;5055747;28;20025;-84
2023/10/19 01:35:24;;;;;;;16.98;15.15;;;12.90;99.90;;;;;;5054443;28;20437;-84
2023/10/19 01:37:50;;;;;;;19.33;16.40;;;12.90;99.90;;;;;;5054387;28;20029;-84
2023/10/19 01:40:20;;;;;;;17.75;14.15;;;13.00;99.90;;;;;;5055338;28;20369;-84
2023/10/19 01:42:46;;;;;;;17.85;13.40;;;13.10;99.90;;;;;;5055220;28;20020;-84
2023/10/19 01:45:11;;;;;;;15.95;13.10;;;13.10;99.90;;;;;;5054614;28;20385;-84
2023/10/19 01:47:40;;;;;;;15.05;12.73;;;13.20;99.90;;;;;;5055226;28;20032;-83
2023/10/19 01:50:06;;;;;;;14.70;10.75;;;13.20;99.90;;;;;;5054975;28;20036;-84
2023/10/19 01:52:32;;;;;;;10.30;9.40;;;13.30;99.90;;;;;;5054160;28;20029;-84
2023/10/19 01:55:07;;;;;;;14.13;10.50;;;13.40;99.90;;;;;;5055006;28;20025;-84
2023/10/19 01:57:34;;;;;;;12.57;11.32;;;13.40;99.90;;;;;;5053922;28;20021;-84
2023/10/19 02:00:08;;;;;;;15.32;12.10;;;13.40;99.90;;;;;;5054275;28;20031;-84
2023/10/19 02:02:35;;;;;;;14.55;12.07;;;13.50;99.90;;;;;;5054872;28;20033;-84
2023/10/19 02:05:04;;;;;;;19.55;13.50;;;13.60;99.90;;;;;;5054162;28;20044;-84
2023/10/19 02:07:29;;;;;;;16.63;13.23;;;13.50;99.90;;;;;;5054816;28;20029;-83
2023/10/19 02:09:55;;;;;;;14.00;12.50;;;13.60;99.90;;;;;;5054574;28;20384;-84
2023/10/19 02:12:21;;;;;;;14.25;12.73;;;13.50;99.90;;;;;;5054087;28;20071;-84
2023/10/19 02:14:47;;;;;;;14.50;12.90;;;13.60;99.90;;;;;;5054227;28;20032;-84
2023/10/19 02:17:14;;;;;;;13.80;12.32;;;13.60;99.90;;;;;;5054098;28;20120;-85
2023/10/19 02:19:40;;;;;;;13.18;11.85;;;13.60;99.90;;;;;;5052591;28;20063;-86
2023/10/19 02:22:11;;;;;;;16.02;13.10;;;13.60;99.90;;;;;;5054714;28;20452;-87
2023/10/19 02:24:37;;;;;;;13.75;12.45;;;13.70;99.90;;;;;;5055070;28;20056;-86
2023/10/19 02:27:03;;;;;;;15.68;13.32;;;13.70;99.90;;;;;;5054100;28;20057;-86
2023/10/19 02:29:28;;;;;;;15.85;14.18;;;13.70;99.90;;;;;;5054759;28;20345;-87
2023/10/19 02:31:55;;;;;;;15.70;12.98;;;13.70;99.90;;;;;;5054382;28;20524;-87
2023/10/19 02:34:22;;;;;;;13.60;12.20;;;13.70;99.90;;;;;;5054107;28;20055;-86
2023/10/19 02:36:48;;;;;;;14.90;12.52;;;14.20;99.90;;;;;;5053248;28;20116;-86
2023/10/19 02:39:14;;;;;;;14.50;12.07;;;13.70;99.90;;;;;;5053402;28;20025;-86
2023/10/19 02:41:45;;;;;;;17.42;12.35;;;13.70;99.90;;;;;;5053228;28;20029;-87
2023/10/19 02:44:22;;;;;;;12.82;11.52;;;13.70;99.90;;;;;;5054231;28;20029;-86
2023/10/19 02:47:08;;;;;;;13.85;12.38;;;13.90;99.90;;;;;;5054102;28;20063;-86
2023/10/19 02:49:38;;;;;;;13.75;10.75;;;13.80;99.90;;;;;;5054237;28;20045;-86
2023/10/19 02:52:04;;;;;;;12.20;10.88;;;14.20;99.90;;;;;;5054054;28;20488;-85
2023/10/19 02:54:32;;;;;;;12.95;10.98;;;13.70;99.90;;;;;;5053337;28;20473;-86
2023/10/19 02:56:59;;;;;;;11.70;10.27;;;13.70;99.90;;;;;;5053723;28;20542;-86
2023/10/19 02:59:28;;;;;;;12.65;9.13;;;13.80;99.90;;;;;;5054175;28;20061;-86
2023/10/19 03:02:01;;;;;;;10.35;8.80;;;13.80;99.90;;;;;;5044630;28;20028;-85
2023/10/19 03:04:28;;;;;;;8.80;7.78;;;14.30;99.90;;;;;;5037201;28;20021;-86
2023/10/19 03:06:56;;;;;;;10.90;7.68;;;14.00;99.90;;;;;;5049795;28;20385;-85
2023/10/19 03:11:56;;;;;;;7.53;6.72;;;14.10;99.90;;;;;;5053314;28;20121;-86
2023/10/19 03:14:25;;;;;;;10.98;5.78;;;13.90;99.90;;;;;;5053755;28;20025;-86
2023/10/19 03:16:51;;;;;;;6.80;5.28;;;13.90;99.90;;;;;;5052632;28;20112;-86
2023/10/19 03:19:17;;;;;;;9.50;5.57;;;13.90;99.90;;;;;;5053719;28;20032;-86
2023/10/19 03:21:43;;;;;;;18.20;6.00;;;13.90;99.90;;;;;;5053281;28;20025;-86
2023/10/19 03:24:22;;;;;;;7.40;4.70;;;13.90;99.90;;;;;;5044766;28;20112;-85
2023/10/19 03:26:51;;;;;;;7.30;3.58;;;13.90;99.90;;;;;;5033035;28;20029;-86
2023/10/19 03:29:30;;;;;;;7.28;3.45;;;14.00;99.90;;;;;;5032278;28;20079;-86
2023/10/19 03:31:56;;;;;;;7.35;3.35;;;14.40;99.90;;;;;;5032878;28;20230;-86
2023/10/19 03:34:23;;;;;;;6.47;2.75;;;14.50;99.90;;;;;;5033601;28;20434;-86
2023/10/19 03:36:50;;;;;;;2.47;2.03;;;13.90;99.90;;;;;;5032366;28;20055;-86
2023/10/19 03:39:17;;;;;;;3.85;1.77;;;14.00;99.90;;;;;;5033337;28;20470;-86
2023/10/19 03:41:44;;;;;;;4.78;1.73;;;13.90;99.90;;;;;;5032664;28;20076;-85
2023/10/19 03:44:24;;;;;;;4.60;2.42;;;14.00;99.90;;;;;;5033175;28;20028;-86
2023/10/19 03:46:53;;;;;;;7.20;1.50;;;13.90;99.90;;;;;;5038694;28;20049;-86
2023/10/19 03:49:22;;;;;;;5.65;1.92;;;13.90;99.90;;;;;;5033095;28;20037;-85
2023/10/19 03:51:58;;;;;;;6.93;1.85;;;13.90;99.90;;;;;;5032140;28;20552;-86
2023/10/19 03:54:27;;;;;;;3.95;1.67;;;13.90;99.90;;;;;;5033184;28;20496;-85
2023/10/19 03:56:53;;;;;;;6.13;1.65;;;13.90;99.90;;;;;;5032786;28;20044;-85
2023/10/19 03:59:31;;;;;;;3.08;1.23;;;13.90;99.90;;;;;;5032132;28;20505;-85
2023/10/19 04:01:59;;;;;;;2.65;1.35;;;14.00;99.90;;;;;;5032731;28;20061;-86
2023/10/19 04:04:25;;;;;;;4.45;1.42;;;13.90;99.90;;;;;;5033147;28;20053;-85
2023/10/19 04:06:57;;;;;;;2.25;1.30;;;13.90;99.90;;;;;;5043587;28;20114;-86
2023/10/19 04:09:23;;;;;;;3.03;1.63;;;13.80;99.90;;;;;;5032771;28;20045;-85
2023/10/19 04:11:49;;;;;;;4.00;1.60;;;13.80;99.90;;;;;;5031627;28;20067;-86
2023/10/19 04:14:15;;;;;;;7.10;1.70;;;13.80;99.90;;;;;;5032269;28;20026;-85
2023/10/19 04:16:44;;;;;;;3.30;1.58;;;13.80;99.90;;;;;;5032219;28;20091;-85
2023/10/19 04:19:11;;;;;;;4.63;1.25;;;13.80;99.90;;;;;;5031676;28;20026;-85
2023/10/19 04:21:39;;;;;;;5.63;1.50;;;13.80;99.90;;;;;;5032116;28;20029;-85
2023/10/19 04:24:07;;;;;;;5.45;1.58;;;13.80;99.90;;;;;;5032435;28;20029;-86
2023/10/19 04:26:37;;;;;;;3.60;1.20;;;14.00;99.90;;;;;;5032409;28;20043;-85
2023/10/19 04:29:10;;;;;;;2.25;1.20;;;13.80;99.90;;;;;;5040642;28;20119;-86
2023/10/19 04:31:37;;;;;;;4.65;1.33;;;13.80;99.90;;;;;;5052102;28;20364;-86
2023/10/19 04:34:07;;;;;;;4.88;1.60;;;13.80;99.90;;;;;;5051501;28;20025;-86
2023/10/19 04:36:33;;;;;;;8.20;1.67;;;13.80;99.90;;;;;;5051910;28;20029;-86
2023/10/19 04:38:59;;;;;;;3.83;1.40;;;13.80;99.90;;;;;;5051592;28;20035;-85
2023/10/19 04:41:27;;;;;;;5.85;1.63;;;14.40;99.90;;;;;;5051336;28;20052;-86
2023/10/19 04:43:54;;;;;;;4.03;1.38;;;14.40;99.90;;;;;;5051248;28;20444;-85
2023/10/19 04:46:20;;;;;;;3.53;1.20;;;14.50;99.90;;;;;;5050727;28;20041;-86
2023/10/19 04:48:45;;;;;;;5.90;1.70;;;14.10;99.90;;;;;;5039218;28;20033;-86
2023/10/19 04:51:12;;;;;;;4.32;1.35;;;14.10;99.90;;;;;;5051429;28;20036;-85
2023/10/19 04:53:40;;;;;;;4.40;1.77;;;14.90;99.90;;;;;;5050686;28;20468;-86
2023/10/19 04:56:08;;;;;;;4.82;1.80;;;13.80;99.90;;;;;;5051935;28;20029;-85
2023/10/19 04:58:35;;;;;;;5.10;1.45;;;13.80;99.90;;;;;;5050266;28;20041;-86
2023/10/19 05:01:01;;;;;;;6.18;1.40;;;13.90;99.90;;;;;;5054982;28;20036;-85
2023/10/19 05:03:27;;;;;;;7.68;2.05;;;13.80;99.90;;;;;;5054114;28;20052;-85
2023/10/19 05:05:54;;;;;;;4.95;1.55;;;13.90;99.90;;;;;;5054727;28;20036;-86
2023/10/19 05:08:20;;;;;;;3.95;1.30;;;14.40;99.90;;;;;;5047970;28;20033;-85
2023/10/19 05:10:46;;;;;;;2.22;1.50;;;13.90;99.90;;;;;;5040595;28;20596;-85
2023/10/19 05:13:12;;;;;;;4.72;1.55;;;13.90;99.90;;;;;;5055725;28;20373;-85
2023/10/19 05:15:38;;;;;;;3.65;1.50;;;13.90;99.90;;;;;;5054735;28;20036;-86
2023/10/19 05:18:04;;;;;;;4.75;1.77;;;13.90;99.90;;;;;;5049509;28;20025;-86
2023/10/19 05:20:30;;;;;;;6.10;1.55;;;13.90;99.90;;;;;;5050448;28;20035;-87
2023/10/19 05:22:57;;;;;;;7.93;2.38;;;13.90;99.90;;;;;;5056905;28;20373;-84
2023/10/19 05:25:23;;;;;;;6.43;1.63;;;13.90;99.90;;;;;;5055537;28;20358;-85
2023/10/19 05:27:49;;;;;;;4.88;2.03;;;14.60;99.90;;;;;;5052905;28;20091;-85
2023/10/19 05:30:15;;;;;;;3.63;1.65;;;13.90;99.90;;;;;;5053354;28;20036;-85
2023/10/19 05:32:40;;;;;;;10.52;1.73;;;13.90;99.90;;;;;;5054000;28;20017;-85
2023/10/19 05:35:06;;;;;;;5.50;2.08;;;14.00;99.90;;;;;;5055053;28;20444;-85
2023/10/19 05:37:31;;;;;;;3.13;1.50;;;14.00;99.90;;;;;;5053870;28;20469;-85
2023/10/19 05:39:57;;;;;;;8.05;1.85;;;14.00;99.90;;;;;;5054541;28;20028;-85
2023/10/19 05:42:23;;;;;;;6.50;1.75;;;14.00;99.90;;;;;;5053850;28;20096;-84
2023/10/19 05:44:48;;;;;;;6.93;1.73;;;14.00;99.90;;;;;;5053355;28;20045;-85
2023/10/19 05:47:14;;;;;;;4.60;1.55;;;14.00;99.90;;;;;;5053620;28;20073;-85
2023/10/19 05:49:39;;;;;;;6.97;2.25;;;13.90;99.90;;;;;;5053867;28;20021;-86
2023/10/19 05:52:05;;;;;;;4.32;1.48;;;14.00;99.90;;;;;;5051582;28;20022;-86
2023/10/19 05:54:31;;;;;;;7.40;1.70;;;14.00;99.90;;;;;;5053715;28;20076;-86
2023/10/19 05:56:57;;;;;;;6.03;1.60;;;13.90;99.90;;;;;;5053234;28;20028;-85
2023/10/19 05:59:26;;;;;;;4.28;1.50;;;13.90;99.90;;;;;;5054271;28;20071;-86
2023/10/19 06:01:52;;;;;;;4.97;1.42;;;14.00;99.90;;;;;;5054615;28;20104;-86
2023/10/19 06:04:17;;;;;;;10.05;1.98;;;13.70;99.90;;;;;;5054637;28;20860;-86
2023/10/19 06:06:43;;;;;;;4.15;1.70;;;13.90;99.90;;;;;;5054675;28;20372;-86
2023/10/19 06:09:09;;;;;;;4.78;1.73;;;14.00;99.90;;;;;;5054175;28;20472;-85
2023/10/19 06:11:37;;;;;;;5.13;1.90;;;14.00;99.90;;;;;;5052062;28;20379;-85
2023/10/19 06:14:09;;;;;;;7.32;1.90;;;14.00;99.90;;;;;;5052345;28;20053;-84
2023/10/19 06:16:35;;;;;;;5.63;2.10;;;14.00;99.90;;;;;;5052980;28;20167;-85
2023/10/19 06:19:00;;;;;;;8.02;2.17;;;14.00;99.90;;;;;;5053150;28;20155;-84
2023/10/19 06:21:26;;;;;;;7.13;2.00;;;14.00;99.90;;;;;;5051815;28;20365;-85
2023/10/19 06:23:53;;;;;;;5.35;1.83;;;14.00;99.90;;;;;;5054120;28;20111;-85
2023/10/19 06:26:18;;;;;;;11.18;2.00;;;14.00;99.90;;;;;;5053616;28;20025;-84
2023/10/19 06:28:44;;;;;;;5.28;1.65;;;14.00;99.90;;;;;;5052962;28;20040;-84
2023/10/19 06:31:10;;;;;;;6.72;2.05;;;14.00;99.90;;;;;;5053870;28;20039;-85
2023/10/19 06:33:36;;;;;;;6.18;1.83;;;14.10;99.90;;;;;;5040704;28;20056;-84
2023/10/19 06:36:03;;;;;;;7.95;2.05;;;14.30;99.90;;;;;;5036845;28;20025;-84
2023/10/19 06:38:29;;;;;;;5.80;1.98;;;14.00;99.90;;;;;;5038363;28;20025;-84
2023/10/19 06:40:55;;;;;;;8.18;2.60;;;14.10;99.90;;;;;;5033718;28;20026;-85
2023/10/19 06:43:23;;;;;;;7.53;1.85;;;14.00;99.90;;;;;;5034535;28;20381;-85
2023/10/19 06:45:50;;;;;;;5.38;1.95;;;13.90;99.90;;;;;;5034789;28;20077;-84
2023/10/19 06:48:15;;;;;;;8.23;1.90;;;14.00;99.90;;;;;;5034150;28;20049;-84
2023/10/19 06:50:41;;;;;;;8.15;2.05;;;14.10;99.90;;;;;;5034355;28;20044;-84
2023/10/19 06:53:06;;;;;;;6.25;1.67;;;14.10;99.90;;;;;;5033701;28;20101;-85
2023/10/19 06:55:32;;;;;;;4.90;1.45;;;14.10;99.90;;;;;;5033335;28;20034;-85
2023/10/19 06:57:59;;;;;;;5.53;1.63;;;14.30;99.90;;;;;;5040993;28;20029;-85
2023/10/19 07:00:28;;;;;;;7.18;2.15;;;14.10;99.90;;;;;;5034047;28;20410;-85
2023/10/19 07:03:00;;;;;;;5.93;1.83;;;14.20;99.90;;;;;;5046535;28;20461;-85
2023/10/19 07:05:25;;;;;;;9.18;2.10;;;14.10;99.90;;;;;;5053829;28;20041;-88
2023/10/19 07:07:54;;;;;;;4.97;2.35;;;14.20;99.90;;;;;;5053057;28;20059;-86
2023/10/19 07:10:20;;;;;;;5.82;1.83;;;14.20;99.90;;;;;;5053981;28;20029;-85
2023/10/19 07:12:48;;;;;;;4.95;1.98;;;14.20;99.90;;;;;;5053565;28;20426;-85
2023/10/19 07:15:14;;;;;;;9.10;1.92;;;15.00;99.90;;;;;;5054445;28;20056;-86
2023/10/19 07:17:48;;;;;;;9.98;2.25;;;14.20;99.90;;;;;;5053718;28;20048;-84
2023/10/19 07:23:09;;;;;;;6.88;2.47;;;14.30;99.90;;;;;;5077597;28;20020;-85
2023/10/19 07:25:42;;;;;;;10.30;2.05;;;14.30;99.90;;;;;;5059826;28;20100;-82
2023/10/19 07:28:09;;;;;;;9.55;2.28;;;14.30;99.90;;;;;;5053916;28;20029;-83
2023/10/19 07:30:35;;;;;;;8.25;2.28;;;14.30;99.90;;;;;;5053393;28;20039;-81
2023/10/19 07:33:00;;;;;;;8.75;2.17;;;14.30;99.90;;;;;;5054184;28;20017;-89
2023/10/19 07:35:27;;;;;;;3.40;1.73;;;14.50;99.90;;;;;;5053631;28;20036;-85
2023/10/19 07:37:53;;;;;;;5.43;1.80;;;14.30;99.90;;;;;;5053605;28;20488;-85
2023/10/19 07:40:19;;;;;;;4.75;1.60;;;14.30;99.90;;;;;;5042724;28;20044;-85
2023/10/19 07:42:46;;;;;;;9.75;2.50;;;14.40;99.90;;;;;;5033849;28;20018;-83
2023/10/19 07:45:12;;;;;;;7.57;1.85;;;14.40;99.90;;;;;;5033447;28;20076;-88
2023/10/19 07:47:41;;;;;;;5.10;1.73;;;14.40;99.90;;;;;;5033355;28;20048;-86
2023/10/19 07:50:16;;;;;;;6.85;3.00;;;14.40;99.90;;;;;;5031574;28;20037;-82
2023/10/19 07:52:49;;;;;;;10.60;2.38;;;14.40;99.90;;;;;;5033450;28;20072;-84
2023/10/19 07:55:24;;;;;;;13.18;3.03;;;14.40;99.90;;;;;;5033988;28;20049;-88
2023/10/19 07:57:50;;;;;;;9.57;2.60;;;14.40;99.90;;;;;;5050769;28;20150;-84
2023/10/19 08:00:17;;;;;;;6.47;2.35;;;14.50;99.90;;;;;;5053470;28;20025;-85
2023/10/19 08:02:47;;;;;;;7.93;2.70;;;14.50;99.90;;;;;;5050845;28;20036;-87
2023/10/19 08:05:13;;;;;;;5.77;2.30;;;14.50;99.90;;;;;;5045066;28;20095;-88
2023/10/19 08:07:42;;;;;;;8.15;2.70;;;14.50;99.90;;;;;;5055553;28;20670;-84
2023/10/19 08:10:10;;;;;;;11.13;2.88;;;14.50;99.90;;;;;;5041897;28;20030;-85
2023/10/19 08:12:42;;;;;;;7.70;2.55;;;14.60;99.90;;;;;;5032987;28;20033;-84
2023/10/19 08:15:11;;;;;;;11.43;2.40;;;14.60;99.90;;;;;;5050078;28;20531;-85
2023/10/19 08:17:38;;;;;;;8.40;2.15;;;14.50;99.90;;;;;;5044405;28;20022;-86
2023/10/19 08:20:08;;;;;;;5.88;2.90;;;14.60;99.90;;;;;;5033766;28;20073;-85
2023/10/19 08:22:36;;;;;;;9.60;2.70;;;14.60;99.90;;;;;;5033173;28;20030;-84
2023/10/19 08:25:03;;;;;;;7.90;2.80;;;14.80;99.90;;;;;;5043150;28;20033;-85
2023/10/19 08:27:29;;;;;;;11.82;3.15;;;14.60;99.90;;;;;;5052300;28;20032;-83
2023/10/19 08:29:55;;;;;;;8.68;3.45;;;14.60;99.90;;;;;;5050791;28;20431;-84
2023/10/19 08:32:21;;;;;;;13.88;3.63;;;14.60;99.90;;;;;;5051971;28;20033;-85
2023/10/19 08:34:46;;;;;;;16.48;3.80;;;14.60;99.90;;;;;;5031811;28;20083;-84
2023/10/19 08:37:13;;;;;;;9.00;3.30;;;14.60;99.90;;;;;;5032781;28;20030;-85
2023/10/19 08:39:38;;;;;;;12.35;4.15;;;14.60;99.90;;;;;;5032329;28;20033;-84
2023/10/19 08:42:05;;;;;;;5.22;2.83;;;14.60;99.90;;;;;;5014875;28;20037;-84
2023/10/19 08:44:31;;;;;;;12.00;3.47;;;14.70;99.90;;;;;;5047949;28;20048;-83
2023/10/19 08:46:59;;;;;;;10.95;3.55;;;14.70;99.90;;;;;;5048997;28;20033;-83
2023/10/19 08:49:26;;;;;;;8.30;3.45;;;14.70;99.90;;;;;;5051652;28;20029;-85
2023/10/19 08:51:53;;;;;;;12.65;3.60;;;14.70;99.90;;;;;;5053570;28;20028;-86
2023/10/19 08:54:19;;;;;;;10.90;3.47;;;14.80;99.90;;;;;;5054774;28;20025;-84
2023/10/19 08:56:47;;;;;;;10.30;3.40;;;14.80;99.90;;;;;;5051052;28;20229;-84
2023/10/19 08:59:17;;;;;;;13.75;3.40;;;14.80;99.90;;;;;;5050153;28;20056;-85
2023/10/19 09:01:43;;;;;;;12.77;3.40;;;14.90;99.90;;;;;;5050189;28;20056;-85
2023/10/19 09:04:11;;;;;;;13.20;4.70;;;15.00;99.90;;;;;;5061082;28;20020;-85
2023/10/19 09:06:44;;;;;;;12.40;3.22;;;15.00;99.90;;;;;;5071252;28;20033;-85
2023/10/19 09:09:19;;;;;;;10.95;3.47;;;15.00;99.90;;;;;;5064891;28;20592;-84
2023/10/19 09:11:46;;;;;;;12.68;3.75;;;15.10;99.90;;;;;;5050740;28;20039;-87
2023/10/19 09:14:13;;;;;;;18.90;3.95;;;15.20;99.90;;;;;;5051216;28;20493;-86
2023/10/19 09:16:55;;;;;;;12.70;3.67;;;15.70;99.90;;;;;;5048698;28;20531;-86
2023/10/19 09:19:34;;;;;;;15.18;3.65;;;15.30;99.90;;;;;;5032749;28;20040;-88
2023/10/19 09:22:00;;;;;;;11.18;3.25;;;15.30;99.90;;;;;;5031849;28;20401;-87
2023/10/19 09:24:26;;;;;;;10.02;3.42;;;15.30;99.90;;;;;;5032390;28;20025;-85
2023/10/19 09:27:07;;;;;;;19.13;3.13;;;15.40;99.90;;;;;;5043018;28;20035;-85
2023/10/19 09:29:33;;;;;;;13.90;4.10;;;16.50;99.90;;;;;;5047500;28;20033;-85
2023/10/19 09:32:03;;;;;;;12.25;2.80;;;16.00;99.90;;;;;;5032707;28;20032;-86
2023/10/19 09:34:32;;;;;;;14.80;3.00;;;15.40;99.90;;;;;;5032735;28;20036;-85
2023/10/19 09:37:03;;;;;;;11.77;3.30;;;15.50;99.90;;;;;;5031887;28;20030;-85
2023/10/19 09:39:34;;;;;;;16.55;2.92;;;15.50;99.90;;;;;;5034043;28;20036;-85
2023/10/19 09:42:05;;;;;;;11.88;3.45;;;15.50;99.90;;;;;;5051798;28;20528;-87
2023/10/19 09:44:37;;;;;;;13.02;3.83;;;15.50;99.90;;;;;;5052254;28;20383;-85
2023/10/19 09:47:05;;;;;;;9.93;2.97;;;15.50;99.90;;;;;;5055341;28;20230;-85
2023/10/19 09:49:30;;;;;;;16.77;3.60;;;16.00;99.90;;;;;;5054864;28;20045;-85
2023/10/19 09:51:56;;;;;;;13.73;3.90;;;16.10;99.90;;;;;;5052009;28;20100;-85
2023/10/19 09:54:39;;;;;;;13.00;3.17;;;15.60;99.90;;;;;;5048231;28;20025;-85
2023/10/19 09:57:16;;;;;;;10.45;2.92;;;15.60;99.90;;;;;;5038494;28;20488;-83
2023/10/19 09:59:46;;;;;;;11.10;3.33;;;15.60;99.90;;;;;;5053921;28;20025;-83
2023/10/19 10:02:17;;;;;;;15.07;3.75;;;15.60;99.90;;;;;;5055116;28;20025;-81
2023/10/19 10:04:45;;;;;;;12.98;3.58;;;15.70;99.90;;;;;;5054599;28;20116;-85
2023/10/19 10:07:11;;;;;;;11.45;3.20;;;15.70;99.90;;;;;;5058686;28;20029;-91
2023/10/19 10:09:44;;;;;;;13.80;3.65;;;15.70;99.90;;;;;;5056566;28;20362;-88
2023/10/19 10:12:17;;;;;;;13.73;3.05;;;15.80;99.90;;;;;;5058128;28;20361;-83
2023/10/19 10:14:59;;;;;;;7.95;3.05;;;15.80;99.90;;;;;;5056845;28;20420;-85
2023/10/19 10:17:28;;;;;;;15.02;4.38;;;15.90;99.90;;;;;;5051444;28;20022;-83
2023/10/19 10:19:56;;;;;;;11.30;4.40;;;15.80;99.90;;;;;;5051910;28;20549;-83
2023/10/19 10:22:22;;;;;;;18.33;4.25;;;15.90;99.90;;;;;;5055144;28;20477;-85
2023/10/19 10:24:57;;;;;;;13.63;7.93;;;15.90;99.90;;;;;;5057102;28;20056;-84
2023/10/19 10:27:23;;;;;;;20.35;6.15;;;16.10;99.90;;;;;;5056734;28;20029;-90
2023/10/19 10:30:01;;;;;;;10.48;2.88;;;15.90;99.90;;;;;;5045122;28;20036;-86
2023/10/19 10:32:47;;;;;;;19.60;4.00;;;16.10;99.90;;;;;;5034955;28;20037;-86
2023/10/19 10:35:41;;;;;;;22.08;4.18;;;15.90;99.90;;;;;;5041206;28;20043;-85
2023/10/19 10:38:14;;;;;;;21.73;3.50;;;16.00;99.90;;;;;;5053290;28;20021;-84
2023/10/19 10:40:50;;;;;;;12.35;2.95;;;16.00;99.90;;;;;;5062247;28;20036;-84
2023/10/19 10:43:17;;;;;;;15.45;4.07;;;16.00;99.90;;;;;;5055215;28;20021;-85
2023/10/19 10:45:43;;;;;;;8.73;3.22;;;16.00;99.90;;;;;;5054592;28;20048;-87
2023/10/19 10:48:13;;;;;;;13.38;3.25;;;16.10;99.90;;;;;;5070093;28;20016;-86
2023/10/19 10:50:39;;;;;;;12.65;3.72;;;16.30;99.90;;;;;;5078850;28;20021;-85
2023/10/19 10:53:05;;;;;;;16.60;3.42;;;16.20;99.90;;;;;;5062997;28;20111;-85
2023/10/19 10:55:32;;;;;;;15.02;3.13;;;16.20;99.90;;;;;;5054503;28;20124;-85
2023/10/19 10:57:58;;;;;;;12.48;3.20;;;16.20;99.90;;;;;;5049531;28;20025;-85
2023/10/19 11:00:26;;;;;;;19.23;4.10;;;16.20;99.90;;;;;;5043402;28;20108;-85
2023/10/19 11:03:08;;;;;;;14.55;3.08;;;16.30;99.90;;;;;;5054014;28;20033;-84
2023/10/19 11:05:35;;;;;;;8.80;2.50;;;16.30;99.90;;;;;;5036071;28;20091;-83
2023/10/19 11:08:13;;;;;;;18.65;3.65;;;16.30;99.90;;;;;;5037067;28;20096;-85
2023/10/19 11:10:42;;;;;;;12.82;3.10;;;16.30;99.90;;;;;;5053772;28;20084;-84
2023/10/19 11:13:09;;;;;;;13.38;3.30;;;16.40;99.90;;;;;;5052579;28;20107;-85
2023/10/19 11:15:39;;;;;;;11.57;3.20;;;16.40;99.90;;;;;;5051965;28;20036;-83
2023/10/19 11:18:07;;;;;;;12.30;3.55;;;16.40;99.90;;;;;;5052971;28;20569;-83
2023/10/19 11:20:33;;;;;;;14.50;3.67;;;16.40;99.90;;;;;;5054748;28;20421;-83
2023/10/19 11:23:02;;;;;;;14.00;3.28;;;16.40;99.90;;;;;;5054103;28;20449;-84
2023/10/19 11:25:31;;;;;;;11.43;2.72;;;16.40;99.90;;;;;;5039824;28;20017;-83
2023/10/19 11:27:58;;;;;;;12.73;2.97;;;16.80;99.90;;;;;;5049348;28;20501;-84
2023/10/19 11:30:29;;;;;;;11.43;3.13;;;16.50;99.90;;;;;;5035514;28;20050;-83
2023/10/19 11:33:00;;;;;;;11.30;2.75;;;16.50;99.90;;;;;;5034306;28;20052;-84
2023/10/19 11:35:29;;;;;;;15.02;3.05;;;17.10;99.90;;;;;;5053042;28;20033;-84
2023/10/19 11:37:57;;;;;;;13.82;3.25;;;16.60;99.90;;;;;;5053196;28;20025;-84
2023/10/19 11:40:23;;;;;;;11.82;3.40;;;16.30;99.90;;;;;;5053576;28;20069;-84
2023/10/19 11:42:50;;;;;;;14.70;3.67;;;16.70;99.90;;;;;;5052698;28;20017;-84
2023/10/19 11:45:16;;;;;;;18.92;3.53;;;16.70;99.90;;;;;;5053648;28;20055;-84
2023/10/19 11:47:44;;;;;;;14.65;3.08;;;16.70;99.90;;;;;;5050703;28;20043;-84
2023/10/19 11:50:14;;;;;;;14.63;2.97;;;16.50;99.90;;;;;;5052714;28;20133;-84
2023/10/19 11:52:40;;;;;;;14.90;2.80;;;16.30;99.90;;;;;;5051513;28;20062;-83
2023/10/19 11:55:06;;;;;;;16.23;2.60;;;16.70;99.90;;;;;;5044176;28;20025;-83
2023/10/19 11:57:32;;;;;;;8.52;2.63;;;16.70;99.90;;;;;;5052810;28;20025;-83
2023/10/19 11:59:59;;;;;;;15.27;2.88;;;17.40;99.90;;;;;;5052890;28;20029;-84
2023/10/19 12:02:26;;;;;;;6.07;2.45;;;16.80;99.90;;;;;;5053235;28;20045;-83
2023/10/19 12:04:52;;;;;;;15.00;2.88;;;16.70;99.90;;;;;;5052364;28;20029;-84
2023/10/19 12:07:18;;;;;;;11.75;3.33;;;16.70;99.90;;;;;;5052986;28;20043;-84
2023/10/19 12:09:44;;;;;;;13.13;2.72;;;16.70;99.90;;;;;;5050702;28;20055;-83
2023/10/19 12:12:10;;;;;;;13.15;2.35;;;16.70;99.90;;;;;;5053710;28;20499;-83
2023/10/19 12:14:39;;;;;;;13.73;2.70;;;17.20;99.90;;;;;;5037749;28;20037;-86
2023/10/19 12:17:07;;;;;;;9.60;2.50;;;16.70;99.90;;;;;;5032942;28;20018;-85
2023/10/19 12:19:33;;;;;;;16.67;3.30;;;17.00;99.90;;;;;;5052698;28;20051;-85
2023/10/19 12:21:59;;;;;;;12.55;3.47;;;17.00;99.90;;;;;;5052801;28;20377;-85
2023/10/19 12:24:28;;;;;;;13.77;2.53;;;17.00;99.90;;;;;;5052513;28;20025;-85
2023/10/19 12:26:54;;;;;;;18.15;3.90;;;16.70;99.90;;;;;;5048570;28;20025;-85
2023/10/19 12:29:21;;;;;;;15.13;2.67;;;16.60;99.90;;;;;;5052506;28;20029;-86
2023/10/19 12:31:47;;;;;;;16.13;3.30;;;16.60;99.90;;;;;;5066091;28;20314;-84
2023/10/19 12:36:58;;;;;;;18.55;3.40;;;16.20;99.90;;;;;;5039415;28;20439;-85
2023/10/19 12:39:38;;;;;;;12.20;3.58;;;17.70;99.90;;;;;;5051788;28;20512;-85
2023/10/19 12:42:03;;;;;;;11.13;2.75;;;16.50;99.90;;;;;;5051453;28;20086;-84
2023/10/19 12:44:31;;;;;;;9.40;2.65;;;16.50;99.90;;;;;;5050733;28;20397;-84
2023/10/19 12:46:58;;;;;;;13.75;3.53;;;17.30;99.90;;;;;;5049993;28;20417;-87
2023/10/19 12:49:42;;;;;;;13.30;3.00;;;16.90;99.90;;;;;;5052462;28;20083;-91
2023/10/19 12:52:08;;;;;;;11.70;2.90;;;17.60;99.90;;;;;;5053524;28;20024;-85
2023/10/19 12:54:51;;;;;;;8.23;2.60;;;16.50;99.90;;;;;;5049092;28;20025;-89
2023/10/19 12:57:16;;;;;;;9.35;2.50;;;17.90;99.90;;;;;;5051579;28;20029;-86
2023/10/19 12:59:43;;;;;;;7.63;2.30;;;17.90;99.90;;;;;;5058842;28;20211;-87
2023/10/19 13:02:21;;;;;;;9.75;3.22;;;17.90;99.90;;;;;;5070881;28;20013;-85
2023/10/19 13:07:32;;;;;;;14.35;3.72;;;16.40;99.90;;;;;;5054798;22;20130;-87
2023/10/19 13:09:58;;;;;;;9.63;3.00;;;17.90;99.90;;;;;;5049743;28;20567;-86